Nearby METAR Reports

 

KBED - Bedford, Massachusetts, USA
Distance from station: W 5mi, 9km
Updated: Sun, 19-Aug-2018 5:56am EDT
Overcast
Overcast
 Wind from NNE
Wind: NNE 8 mph , 13 km/h
Temperature: 66°F , 19°C
Dew Point: 61°F , 16°C
Humidity: 83%
Barometer: 1014.2 hPa
Clouds: Overcast
Visibility: 10 miles , 16 km
Cloud details: Overcast 8500 ft
2018/08/19 09:56 KBED 190956Z AUTO 02007KT 10SM OVC085 19/16 A2995 RMK AO2 SLP154 T01890161
KBOS - Boston, Massachusetts, USA
Distance from station: SE 11mi, 18km
Updated: Sun, 19-Aug-2018 5:54am EDT
Mostly cloudy
Mostly cloudy
 Wind from NE
Wind: NE 16 mph , 26 km/h
Temperature: 68°F , 20°C
Dew Point: 61°F , 16°C
Humidity: 78%
Barometer: 1014.2 hPa
Clouds: Mostly cloudy
Visibility: 10 miles , 16 km
Cloud details: Partly cloudy 2200 ft
Mostly cloudy 9000 ft
Mostly cloudy 13000 ft
Mostly cloudy 25000 ft
2018/08/19 09:54 KBOS 190954Z 05014KT 10SM SCT022 BKN090 BKN130 BKN250 20/16 A2995 RMK AO2 SLP142 T02000156 $
 
KBVY - Beverly, Massachusetts, USA
Distance from station: ENE 17mi, 27km
Updated: Sun, 19-Aug-2018 5:53am EDT
Overcast
Overcast
 Wind from N
Wind: N 6 mph , 9 km/h
Temperature: 66°F , 19°C
Dew Point: 63°F , 17°C
Humidity: 88%
Barometer: 1014.2 hPa
Clouds: Overcast
Visibility: 10 miles , 16 km
Cloud details: Overcast 8000 ft
2018/08/19 09:53 KBVY 190953Z AUTO 01005KT 10SM OVC080 19/17 A2995 RMK AO2 SLP136 T01890172
KMQE - East Milton, Massachusetts, USA
Distance from station: SSE 17mi, 28km
Updated: Sun, 19-Aug-2018 5:56am EDT

 Wind from NE
Wind: NE 12 mph , 19 km/h, Gust: 20 mph , 31 km/h
Temperature: 63°F , 17°C
Dew Point: 61°F , 16°C
Humidity: 94%
Barometer: 1014.2 hPa
2018/08/19 09:56 KMQE 190956Z AUTO 04010G17KT 17/16 A2995 RMK AO1 SLP148 T01670161
 
KLWM - Lawrence, Massachusetts, USA
Distance from station: N 18mi, 29km
Updated: Sun, 19-Aug-2018 5:54am EDT
Clear
Clear
 Wind from N
Wind: N 5 mph , 7 km/h
Temperature: 66°F , 19°C
Dew Point: 61°F , 16°C
Humidity: 83%
Barometer: 1015.6 hPa
Clouds: Clear
Visibility: 10 miles , 16 km
2018/08/19 09:54 KLWM 190954Z AUTO 01004KT 10SM CLR 19/16 A2999 RMK AO2 SLP154 T01890161
KOWD - Norwood, Massachusetts, USA
Distance from station: S 19mi, 31km
Updated: Sun, 19-Aug-2018 6:06am EDT
Overcast
Overcast
 Wind from NNE
Wind: NNE 3 mph , 6 km/h
Temperature: 68°F , 20°C
Dew Point: 63°F , 17°C
Humidity: 83%
Barometer: 1013.9 hPa
Clouds: Overcast
Visibility: 10 miles , 16 km
Cloud details: Few Clouds 1800 ft
Mostly cloudy 2500 ft
Overcast 8000 ft
2018/08/19 10:06 KOWD 191006Z AUTO 03003KT 10SM FEW018 BKN025 OVC080 20/17 A2994 RMK AO2 T02000172
 
KASH - Nashua/Boire Fld, New Hampshire, USA
Distance from station: NW 28mi, 45km
Updated: Sun, 19-Aug-2018 5:56am EDT
Clear
Clear
 Wind from NW
Wind: NW 3 mph , 6 km/h
Temperature: 63°F , 17°C
Dew Point: 63°F , 17°C
Humidity: 100%
Barometer: 1015.6 hPa
Clouds: Clear
Visibility: 10 miles , 16 km
2018/08/19 09:56 KASH 190956Z AUTO 32003KT 10SM CLR 17/17 A2999 RMK AO2 SLP164 T01720172 PNO $
KFIT - Fitchburg, Massachusetts, USA
Distance from station: WNW 29mi, 47km
Updated: Sun, 19-Aug-2018 5:52am EDT
Overcast
Overcast
 Wind from N
Wind: N 5 mph , 7 km/h
Temperature: 64°F , 18°C
Dew Point: 61°F , 16°C
Humidity: 88%
Barometer: 1015.6 hPa
Clouds: Overcast
Visibility: 10 miles , 16 km
Cloud details: Overcast 8000 ft
2018/08/19 09:52 KFIT 190952Z AUTO 35004KT 10SM OVC080 18/16 A2999 RMK AO2 SLP154 T01780161
 
KMHT - Manchester, New Hampshire, USA
Distance from station: NNW 35mi, 56km
Updated: Sun, 19-Aug-2018 5:53am EDT
Few Clouds
Few Clouds
 Wind from N
Wind: N 6 mph , 9 km/h
Temperature: 64°F , 18°C
Dew Point: 61°F , 16°C
Humidity: 88%
Barometer: 1014.9 hPa
Clouds: Few Clouds
Visibility: 10 miles , 16 km
Cloud details: Few Clouds 20000 ft
2018/08/19 09:53 KMHT 190953Z 35005KT 10SM FEW200 18/16 A2997 RMK AO2 SLP159 T01830161 $
KGHG - Marshfield, Massachusetts, USA
Distance from station: SE 37mi, 59km
Updated: Sun, 19-Aug-2018 5:55am EDT
Mostly cloudy
Mostly cloudy
 Wind from NE
Wind: NE 12 mph , 19 km/h, Gust: 17 mph , 28 km/h
Temperature: 68°F , 20°C
Dew Point: 63°F , 17°C
Humidity: 83%
Barometer: 1013.5 hPa
Clouds: Mostly cloudy
Visibility: 10 miles , 16 km
Cloud details: Mostly cloudy 2400 ft
Mostly cloudy 7500 ft
2018/08/19 09:55 KGHG 190955Z AUTO 05010G15KT 10SM BKN024 BKN075 20/17 A2993 RMK AO2
 
KORH - Worcester, Massachusetts, USA
Distance from station: WSW 37mi, 59km
Updated: Sun, 19-Aug-2018 6:06am EDT
Overcast
Overcast
 Wind from NNE
Wind: NNE 9 mph , 15 km/h
Temperature: 61°F , 16°C
Dew Point: 61°F , 16°C
Humidity: 100%
Barometer: 1015.2 hPa
Clouds: Overcast
Visibility: 10 miles , 16 km
Cloud details: Few Clouds 700 ft
Partly cloudy 1400 ft
Overcast 7000 ft
2018/08/19 10:06 KORH 191006Z 03008KT 10SM FEW007 SCT014 OVC070 16/16 A2998 RMK AO2 T01610156
KSFZ - Pawtucket, Rhode Island, USA
Distance from station: SSW 41mi, 65km
Updated: Sun, 19-Aug-2018 5:56am EDT
Overcast
Overcast
 Wind from NE
Wind: NE 13 mph , 20 km/h
Temperature: 64°F , 18°C
Dew Point: 63°F , 17°C
Humidity: 94%
Barometer: 1014.2 hPa
Clouds: Overcast
Visibility: 10 miles , 16 km
Cloud details: Mostly cloudy 1000 ft
Mostly cloudy 1400 ft
Overcast 2400 ft
2018/08/19 09:56 KSFZ 190956Z AUTO 04011KT 10SM BKN010 BKN014 OVC024 18/17 A2995 RMK AO2 CIG 006V012 SLP087 T01780167
 
KTAN - Taunton, Massachusetts, USA
Distance from station: SSE 41mi, 66km
Updated: Sun, 19-Aug-2018 6:03am EDT
Overcast
Overcast
 Wind from varies
Wind: varies 5 mph , 7 km/h
Temperature: 66°F , 19°C
Dew Point: 63°F , 17°C
Humidity: 88%
Barometer: 1013.5 hPa
Clouds: Overcast
Visibility: 10 miles , 16 km
Cloud details: Partly cloudy 1900 ft
Overcast 5000 ft
2018/08/19 10:03 KTAN 191003Z AUTO VRB04KT 10SM SCT019 OVC050 19/17 A2993 RMK AO2 T01890172
KPYM - Plymouth, Massachusetts, USA
Distance from station: SSE 44mi, 71km
Updated: Sun, 19-Aug-2018 5:52am EDT
Light rain, Overcast
Light rain, Overcast
 Wind from NNE
Wind: NNE 10 mph , 17 km/h
Temperature: 66°F , 19°C
Dew Point: 63°F , 17°C
Humidity: 88%
Barometer: 1013.5 hPa
Summary: Light rain
Clouds: Overcast
Visibility: 10 miles , 16 km
Cloud details: Partly cloudy 1800 ft
Overcast 5500 ft
2018/08/19 09:52 KPYM 190952Z AUTO 03009KT 10SM -RA SCT018 OVC055 19/17 A2993 RMK AO2 RAB38 SLP134 P0000 T01890167
 
KPSM - Portsmouth/Pease, New Hampshire, USA
Distance from station: NNE 46mi, 74km
Updated: Sun, 19-Aug-2018 5:56am EDT
Mostly cloudy
Mostly cloudy
 Wind from N
Wind: N 7 mph , 11 km/h
Temperature: 63°F , 17°C
Dew Point: 59°F , 15°C
Humidity: 88%
Barometer: 1014.6 hPa
Clouds: Mostly cloudy
Visibility: 10 miles , 16 km
Cloud details: Few Clouds 3000 ft
Few Clouds 8000 ft
Partly cloudy 20000 ft
Mostly cloudy 25000 ft
2018/08/19 09:56 KPSM 190956Z 36006KT 10SM FEW030 FEW080 SCT200 BKN250 17/15 A2996 RMK AO2A SLP147 T01690149
KAFN - Jaffrey, New Hampshire, USA
Distance from station: WNW 47mi, 76km
Updated: Sun, 19-Aug-2018 5:52am EDT
Clear
Clear
 Wind from calm
Wind: Calm
Temperature: 63°F , 17°C
Dew Point: 61°F , 16°C
Humidity: 94%
Barometer: 1016.3 hPa
Clouds: Clear
Visibility: 10 miles , 16 km
2018/08/19 09:52 KAFN 190952Z AUTO 00000KT 10SM CLR 17/16 A3001 RMK AO2 SLP162 T01720161